createdAt,value
2022-12-26T13:03:19.141Z,10.19
2022-12-26T13:07:47.203Z,10.15
2022-12-26T13:12:08.686Z,10.18
2022-12-26T13:16:32.636Z,10.01
2022-12-26T13:21:04.253Z,9.89
2022-12-26T13:25:25.568Z,9.84
2022-12-26T13:29:46.051Z,9.78
2022-12-26T13:34:05.022Z,9.64
2022-12-26T13:38:24.138Z,9.72
2022-12-26T13:43:15.792Z,9.64
2022-12-26T13:47:39.882Z,9.57
2022-12-26T13:52:19.401Z,9.61
2022-12-26T13:56:45.855Z,9.57
2022-12-26T14:01:33.888Z,9.62
2022-12-26T14:06:30.028Z,9.61
2022-12-26T14:10:56.501Z,9.53
2022-12-26T14:15:28.320Z,9.50
2022-12-26T14:19:59.389Z,9.47
2022-12-26T14:24:41.831Z,9.43
2022-12-26T14:29:20.350Z,9.43
2022-12-26T14:33:40.784Z,9.29
2022-12-26T14:38:29.983Z,9.05
2022-12-26T14:43:11.721Z,8.78
2022-12-26T14:47:49.951Z,8.54
2022-12-26T14:52:25.037Z,8.33
2022-12-26T14:56:43.047Z,8.23
2022-12-26T15:01:09.098Z,8.15
2022-12-26T15:05:32.959Z,8.06
2022-12-26T15:10:31.404Z,8.09
2022-12-26T15:15:15.978Z,7.99
2022-12-26T15:20:00.856Z,7.97
2022-12-26T15:25:16.877Z,7.97
2022-12-26T15:29:57.021Z,7.92
2022-12-26T15:34:40.712Z,7.91
2022-12-26T15:39:36.191Z,7.95
2022-12-26T15:44:07.710Z,7.98
2022-12-26T15:49:16.077Z,7.98
2022-12-26T15:54:11.627Z,8.06
2022-12-26T15:59:18.616Z,7.99
2022-12-26T16:03:51.208Z,8.01
2022-12-26T16:08:46.703Z,8.10
2022-12-26T16:13:12.184Z,8.05
2022-12-26T16:17:29.986Z,8.02
2022-12-26T16:22:14.391Z,8.03
2022-12-26T16:26:35.223Z,7.97
2022-12-26T16:30:52.922Z,7.97
2022-12-26T16:35:23.089Z,8.05
2022-12-26T16:39:40.181Z,8.05
2022-12-26T16:44:18.592Z,8.18
2022-12-26T16:48:37.159Z,8.13
2022-12-26T16:53:22.606Z,7.95
2022-12-26T16:57:42.587Z,7.84
2022-12-26T17:02:00.711Z,7.88
2022-12-26T17:06:30.062Z,7.89
2022-12-26T17:10:49.919Z,7.95
2022-12-26T17:15:08.384Z,8.05
2022-12-26T17:19:31.846Z,8.02
2022-12-26T17:24:15.184Z,7.97
2022-12-26T17:28:32.034Z,7.91
2022-12-26T17:32:49.208Z,7.89
2022-12-26T17:37:20.093Z,7.87
2022-12-26T17:41:43.633Z,7.89
2022-12-26T17:46:02.190Z,7.94
2022-12-26T17:50:19.464Z,7.97
2022-12-26T17:54:36.521Z,7.97
2022-12-26T17:58:55.338Z,8.08
2022-12-26T18:03:12.997Z,7.97
2022-12-26T18:07:31.696Z,8.02
2022-12-26T18:11:48.847Z,7.98
2022-12-26T18:16:06.895Z,7.97
2022-12-26T18:20:26.283Z,7.98
2022-12-26T18:24:44.073Z,7.84
2022-12-26T18:29:01.878Z,7.81
2022-12-26T18:33:18.753Z,7.88
2022-12-26T18:37:35.906Z,7.84
2022-12-26T18:41:52.812Z,7.85
2022-12-26T18:46:18.500Z,7.87
2022-12-26T18:50:38.045Z,7.88
2022-12-26T18:54:55.196Z,7.88
2022-12-26T18:59:15.024Z,7.84
2022-12-26T19:03:32.138Z,7.85
2022-12-26T19:07:50.193Z,7.81
2022-12-26T19:12:07.167Z,7.91
2022-12-26T19:16:24.198Z,7.84
2022-12-26T19:20:44.556Z,7.82
2022-12-26T19:25:01.458Z,7.85
2022-12-26T19:29:18.601Z,7.85
2022-12-26T19:33:35.553Z,7.82
2022-12-26T19:37:52.684Z,7.85
2022-12-26T19:42:09.566Z,7.85
2022-12-26T19:46:27.939Z,7.81
2022-12-26T19:50:44.816Z,7.82
2022-12-26T19:55:02.036Z,7.84
2022-12-26T19:59:19.063Z,7.81
2022-12-26T20:03:37.044Z,7.75
2022-12-26T20:07:53.855Z,7.81
2022-12-26T20:12:10.903Z,7.78
2022-12-26T20:21:07.077Z,7.72
2022-12-26T20:25:24.259Z,7.62
2022-12-26T20:29:41.172Z,7.54
2022-12-26T20:33:58.830Z,7.47
2022-12-26T20:38:15.697Z,7.47
2022-12-26T20:42:33.179Z,7.46
2022-12-26T20:46:50.129Z,7.43
2022-12-26T20:51:12.347Z,7.39
2022-12-26T20:55:29.443Z,7.36
2022-12-26T20:59:46.585Z,7.36
2022-12-26T21:04:04.135Z,7.33
2022-12-26T21:08:21.654Z,7.29
2022-12-26T21:12:38.618Z,7.22
2022-12-26T21:16:58.898Z,7.27
2022-12-26T21:21:32.372Z,7.26
2022-12-26T21:25:49.458Z,7.27
2022-12-26T21:30:07.255Z,7.33
2022-12-26T21:34:27.910Z,7.32
2022-12-26T21:38:44.773Z,7.24
2022-12-26T21:43:01.960Z,7.23
2022-12-26T21:47:19.143Z,7.22
2022-12-26T21:51:36.220Z,7.18
2022-12-26T21:55:53.086Z,7.12
2022-12-26T22:00:10.812Z,7.12
2022-12-26T22:04:29.574Z,7.12
2022-12-26T22:08:46.472Z,7.11
2022-12-26T22:13:04.794Z,7.09
2022-12-26T22:17:21.629Z,7.08
2022-12-26T22:21:38.722Z,7.05
2022-12-26T22:25:56.473Z,7.04
2022-12-26T22:30:13.816Z,7.05
2022-12-26T22:34:30.919Z,7.08
2022-12-26T22:38:47.799Z,7.08
2022-12-26T22:43:04.862Z,7.08
2022-12-26T22:47:21.736Z,7.06
2022-12-26T22:51:39.631Z,7.05
2022-12-26T22:56:00.332Z,7.05
2022-12-26T23:00:17.391Z,7.04
2022-12-26T23:04:34.935Z,6.99
2022-12-26T23:08:54.502Z,6.98
2022-12-26T23:13:13.659Z,6.95
2022-12-26T23:17:53.900Z,6.94
2022-12-26T23:22:11.337Z,6.96
2022-12-26T23:26:28.176Z,6.95
2022-12-26T23:30:45.235Z,6.95
2022-12-26T23:35:02.116Z,6.94
2022-12-26T23:39:19.285Z,6.96
2022-12-26T23:43:36.476Z,6.98
2022-12-26T23:47:53.597Z,6.95
2022-12-26T23:52:10.494Z,6.99
2022-12-26T23:56:28.105Z,6.95
